map of KIH home
KIH - Airport
Location
City:  Kish Island, Hormozgan, Iran
ICAO:OIBK
IATA:KIH

Details
Type:Airport (Aerodrome, Airfield)
Use:Public/Civil, Military
Latitude:2631'34"N (26.526156)
Longitude:5358'49"E (53.980211)
Datum:WGS 1984
Elevation:101 ft (31 m)
Variation:2.47E (WMM2015 magnetic declination)
0.05 annual change
Runways:2
Longest:12004 × 215 ft (3659 × 65.5 m), paved

Time
Time Zone:UTC+3:30 (DST+4:30)
Local Time:

Weather
METAR:OIBK 210530Z 13012KT 9999 FEW035 31/23 Q1015
TAF:OIBK 202300Z 2100/2206 33003MPS 6000 NSC

Related Locations
Nearby:
Farthest:GMR: 11839 mi / 19054 km
Mangareva [Totegegie], Gambier Islands, PF

Find:

   beyond  
but within

Other Information
Maps:
NOTAMs:
Links:
Sources:

  
  • flag of Iran
  

Sectional Chart

Flight Planning
at skyvector.com

Satellite Image

Google Maps Satellite view

 

Copyright © 2004-2018 Karl L. Swartz. All rights reserved.
The Great Circle Mapper name and logo are trademarks of the Great Circle Mapper.
All other trademarks mentioned herein belong to their respective owners.
Please see credits for attibutions and further copyright information.

  Follow gcmap on Facebook Follow gcmap on Twitter Follow gcmap on Google+ GCmap on LinkedIn

hCard Microformat

Geo Microformat